sensor_id;sensor_type;location;lat;lon;timestamp;temperature;humidity
23507;DHT22;11930;53.076;18.250;2022-11-15T00:02:22;6.50;99.90
23507;DHT22;11930;53.076;18.250;2022-11-15T00:05:07;6.50;99.90
23507;DHT22;11930;53.076;18.250;2022-11-15T00:07:51;6.40;99.90
23507;DHT22;11930;53.076;18.250;2022-11-15T00:10:37;6.50;99.90
23507;DHT22;11930;53.076;18.250;2022-11-15T00:13:21;6.40;99.90
23507;DHT22;11930;53.076;18.250;2022-11-15T00:16:06;6.40;99.90
23507;DHT22;11930;53.076;18.250;2022-11-15T00:18:51;6.40;99.90
23507;DHT22;11930;53.076;18.250;2022-11-15T00:21:36;6.30;99.90
23507;DHT22;11930;53.076;18.250;2022-11-15T00:24:20;6.30;99.90
23507;DHT22;11930;53.076;18.250;2022-11-15T00:27:04;6.30;99.90
23507;DHT22;11930;53.076;18.250;2022-11-15T00:29:49;6.20;99.90
23507;DHT22;11930;53.076;18.250;2022-11-15T00:32:34;6.20;99.90
23507;DHT22;11930;53.076;18.250;2022-11-15T00:35:19;6.20;99.90
23507;DHT22;11930;53.076;18.250;2022-11-15T00:38:04;6.30;99.90
23507;DHT22;11930;53.076;18.250;2022-11-15T00:40:48;6.20;99.90
23507;DHT22;11930;53.076;18.250;2022-11-15T00:43:33;6.20;99.90
23507;DHT22;11930;53.076;18.250;2022-11-15T00:46:18;6.20;99.90
23507;DHT22;11930;53.076;18.250;2022-11-15T00:49:03;6.20;99.90
23507;DHT22;11930;53.076;18.250;2022-11-15T00:51:47;6.30;99.90
23507;DHT22;11930;53.076;18.250;2022-11-15T00:54:32;6.20;99.90
23507;DHT22;11930;53.076;18.250;2022-11-15T00:57:16;6.10;99.90
23507;DHT22;11930;53.076;18.250;2022-11-15T01:00:01;6.10;99.90
23507;DHT22;11930;53.076;18.250;2022-11-15T01:02:45;6.10;99.90
23507;DHT22;11930;53.076;18.250;2022-11-15T01:05:30;6.10;99.90
23507;DHT22;11930;53.076;18.250;2022-11-15T01:08:15;6.10;99.90
23507;DHT22;11930;53.076;18.250;2022-11-15T01:11:05;6.10;99.90
23507;DHT22;11930;53.076;18.250;2022-11-15T01:13:50;6.10;99.90
23507;DHT22;11930;53.076;18.250;2022-11-15T01:16:35;6.10;99.90
23507;DHT22;11930;53.076;18.250;2022-11-15T01:19:19;6.10;99.90
23507;DHT22;11930;53.076;18.250;2022-11-15T01:22:04;6.10;99.90
23507;DHT22;11930;53.076;18.250;2022-11-15T01:24:51;6.10;99.90
23507;DHT22;11930;53.076;18.250;2022-11-15T01:27:35;6.00;99.90
23507;DHT22;11930;53.076;18.250;2022-11-15T01:30:20;6.00;99.90
23507;DHT22;11930;53.076;18.250;2022-11-15T01:33:05;5.90;99.90
23507;DHT22;11930;53.076;18.250;2022-11-15T01:35:49;5.90;99.90
23507;DHT22;11930;53.076;18.250;2022-11-15T01:38:34;5.90;99.90
23507;DHT22;11930;53.076;18.250;2022-11-15T01:41:21;5.90;99.90
23507;DHT22;11930;53.076;18.250;2022-11-15T01:44:36;5.90;99.90
23507;DHT22;11930;53.076;18.250;2022-11-15T01:47:37;5.90;99.90
23507;DHT22;11930;53.076;18.250;2022-11-15T01:50:30;5.90;99.90
23507;DHT22;11930;53.076;18.250;2022-11-15T01:53:15;5.90;99.90
23507;DHT22;11930;53.076;18.250;2022-11-15T01:56:04;5.90;99.90
23507;DHT22;11930;53.076;18.250;2022-11-15T01:58:50;5.90;99.90
23507;DHT22;11930;53.076;18.250;2022-11-15T02:01:36;5.90;99.90
23507;DHT22;11930;53.076;18.250;2022-11-15T02:04:32;5.90;99.90
23507;DHT22;11930;53.076;18.250;2022-11-15T02:07:20;5.90;99.90
23507;DHT22;11930;53.076;18.250;2022-11-15T02:10:12;5.80;99.90
23507;DHT22;11930;53.076;18.250;2022-11-15T02:12:58;5.80;99.90
23507;DHT22;11930;53.076;18.250;2022-11-15T02:16:13;5.70;99.90
23507;DHT22;11930;53.076;18.250;2022-11-15T02:19:37;5.60;99.90
23507;DHT22;11930;53.076;18.250;2022-11-15T02:28:45;5.50;99.90
23507;DHT22;11930;53.076;18.250;2022-11-15T02:35:03;5.50;99.90
23507;DHT22;11930;53.076;18.250;2022-11-15T02:38:04;5.50;99.90
23507;DHT22;11930;53.076;18.250;2022-11-15T02:40:58;5.50;99.90
23507;DHT22;11930;53.076;18.250;2022-11-15T02:44:04;5.50;99.90
23507;DHT22;11930;53.076;18.250;2022-11-15T02:47:03;5.40;99.90
23507;DHT22;11930;53.076;18.250;2022-11-15T02:50:07;5.50;99.90
23507;DHT22;11930;53.076;18.250;2022-11-15T02:52:53;5.40;99.90
23507;DHT22;11930;53.076;18.250;2022-11-15T02:55:43;5.50;99.90
23507;DHT22;11930;53.076;18.250;2022-11-15T03:07:38;5.60;99.90
23507;DHT22;11930;53.076;18.250;2022-11-15T03:19:40;5.60;99.90
23507;DHT22;11930;53.076;18.250;2022-11-15T03:22:33;5.60;99.90
23507;DHT22;11930;53.076;18.250;2022-11-15T03:25:21;5.60;99.90
23507;DHT22;11930;53.076;18.250;2022-11-15T03:28:09;5.70;99.90
23507;DHT22;11930;53.076;18.250;2022-11-15T03:30:58;5.70;99.90
23507;DHT22;11930;53.076;18.250;2022-11-15T03:33:43;5.60;99.90
23507;DHT22;11930;53.076;18.250;2022-11-15T03:36:30;5.60;99.90
23507;DHT22;11930;53.076;18.250;2022-11-15T03:39:16;5.70;99.90
23507;DHT22;11930;53.076;18.250;2022-11-15T03:45:12;5.70;99.90
23507;DHT22;11930;53.076;18.250;2022-11-15T03:48:02;5.70;99.90
23507;DHT22;11930;53.076;18.250;2022-11-15T03:50:49;5.70;99.90
23507;DHT22;11930;53.076;18.250;2022-11-15T03:53:34;5.80;99.90
23507;DHT22;11930;53.076;18.250;2022-11-15T03:56:18;5.80;99.90
23507;DHT22;11930;53.076;18.250;2022-11-15T03:59:03;5.70;99.90
23507;DHT22;11930;53.076;18.250;2022-11-15T04:01:48;5.70;99.90
23507;DHT22;11930;53.076;18.250;2022-11-15T04:04:33;5.70;99.90
23507;DHT22;11930;53.076;18.250;2022-11-15T04:07:17;5.80;99.90
23507;DHT22;11930;53.076;18.250;2022-11-15T04:10:03;5.80;99.90
23507;DHT22;11930;53.076;18.250;2022-11-15T04:12:47;5.80;99.90
23507;DHT22;11930;53.076;18.250;2022-11-15T04:15:32;5.80;99.90
23507;DHT22;11930;53.076;18.250;2022-11-15T04:18:17;5.80;99.90
23507;DHT22;11930;53.076;18.250;2022-11-15T04:21:02;5.70;99.90
23507;DHT22;11930;53.076;18.250;2022-11-15T04:24:05;5.70;99.90
23507;DHT22;11930;53.076;18.250;2022-11-15T04:26:59;5.70;99.90
23507;DHT22;11930;53.076;18.250;2022-11-15T04:29:43;5.70;99.90
23507;DHT22;11930;53.076;18.250;2022-11-15T04:32:28;5.70;99.90
23507;DHT22;11930;53.076;18.250;2022-11-15T04:35:12;5.70;99.90
23507;DHT22;11930;53.076;18.250;2022-11-15T04:37:58;5.70;99.90
23507;DHT22;11930;53.076;18.250;2022-11-15T04:40:42;5.70;99.90
23507;DHT22;11930;53.076;18.250;2022-11-15T04:43:28;5.70;99.90
23507;DHT22;11930;53.076;18.250;2022-11-15T04:46:12;5.80;99.90
23507;DHT22;11930;53.076;18.250;2022-11-15T04:48:57;5.70;99.90
23507;DHT22;11930;53.076;18.250;2022-11-15T04:51:41;5.70;99.90
23507;DHT22;11930;53.076;18.250;2022-11-15T04:54:26;5.70;99.90
23507;DHT22;11930;53.076;18.250;2022-11-15T04:57:10;5.70;99.90
23507;DHT22;11930;53.076;18.250;2022-11-15T04:59:55;5.70;99.90
23507;DHT22;11930;53.076;18.250;2022-11-15T05:02:39;5.70;99.90
23507;DHT22;11930;53.076;18.250;2022-11-15T05:05:43;5.70;99.90
23507;DHT22;11930;53.076;18.250;2022-11-15T05:08:27;5.60;99.90
23507;DHT22;11930;53.076;18.250;2022-11-15T05:11:12;5.70;99.90
23507;DHT22;11930;53.076;18.250;2022-11-15T05:13:57;5.60;99.90
23507;DHT22;11930;53.076;18.250;2022-11-15T05:16:42;5.70;99.90
23507;DHT22;11930;53.076;18.250;2022-11-15T05:19:27;5.60;99.90
23507;DHT22;11930;53.076;18.250;2022-11-15T05:22:11;5.70;99.90
23507;DHT22;11930;53.076;18.250;2022-11-15T05:24:55;5.70;99.90
23507;DHT22;11930;53.076;18.250;2022-11-15T05:27:40;5.70;99.90
23507;DHT22;11930;53.076;18.250;2022-11-15T05:30:24;5.70;99.90
23507;DHT22;11930;53.076;18.250;2022-11-15T05:33:09;5.70;99.90
23507;DHT22;11930;53.076;18.250;2022-11-15T05:36:38;5.70;99.90
23507;DHT22;11930;53.076;18.250;2022-11-15T05:39:22;5.80;99.90
23507;DHT22;11930;53.076;18.250;2022-11-15T05:42:10;5.70;99.90
23507;DHT22;11930;53.076;18.250;2022-11-15T05:44:56;5.70;99.90
23507;DHT22;11930;53.076;18.250;2022-11-15T05:47:43;5.80;99.90
23507;DHT22;11930;53.076;18.250;2022-11-15T05:50:28;5.80;99.90
23507;DHT22;11930;53.076;18.250;2022-11-15T05:53:14;5.70;99.90
23507;DHT22;11930;53.076;18.250;2022-11-15T05:56:00;5.60;99.90
23507;DHT22;11930;53.076;18.250;2022-11-15T05:58:45;5.70;99.90
23507;DHT22;11930;53.076;18.250;2022-11-15T06:01:30;5.70;99.90
23507;DHT22;11930;53.076;18.250;2022-11-15T06:04:14;5.70;99.90
23507;DHT22;11930;53.076;18.250;2022-11-15T06:06:59;5.70;99.90
23507;DHT22;11930;53.076;18.250;2022-11-15T06:09:43;5.70;99.90
23507;DHT22;11930;53.076;18.250;2022-11-15T06:12:28;5.70;99.90
23507;DHT22;11930;53.076;18.250;2022-11-15T06:15:12;5.70;99.90
23507;DHT22;11930;53.076;18.250;2022-11-15T06:17:57;5.70;99.90
23507;DHT22;11930;53.076;18.250;2022-11-15T06:20:41;5.80;99.90
23507;DHT22;11930;53.076;18.250;2022-11-15T06:23:27;5.70;99.90
23507;DHT22;11930;53.076;18.250;2022-11-15T06:26:12;5.80;99.90
23507;DHT22;11930;53.076;18.250;2022-11-15T06:28:56;5.80;99.90
23507;DHT22;11930;53.076;18.250;2022-11-15T06:31:41;5.90;99.90
23507;DHT22;11930;53.076;18.250;2022-11-15T06:34:25;5.90;99.90
23507;DHT22;11930;53.076;18.250;2022-11-15T06:37:10;5.90;99.90
23507;DHT22;11930;53.076;18.250;2022-11-15T06:39:54;5.90;99.90
23507;DHT22;11930;53.076;18.250;2022-11-15T06:42:39;5.80;99.90
23507;DHT22;11930;53.076;18.250;2022-11-15T06:45:23;5.90;99.90
23507;DHT22;11930;53.076;18.250;2022-11-15T06:48:07;5.80;99.90
23507;DHT22;11930;53.076;18.250;2022-11-15T06:50:56;5.80;99.90
23507;DHT22;11930;53.076;18.250;2022-11-15T06:53:41;5.80;99.90
23507;DHT22;11930;53.076;18.250;2022-11-15T06:56:26;5.80;99.90
23507;DHT22;11930;53.076;18.250;2022-11-15T06:59:10;5.80;99.90
23507;DHT22;11930;53.076;18.250;2022-11-15T07:01:55;5.80;99.90
23507;DHT22;11930;53.076;18.250;2022-11-15T07:04:39;5.80;99.90
23507;DHT22;11930;53.076;18.250;2022-11-15T07:07:24;5.90;99.90
23507;DHT22;11930;53.076;18.250;2022-11-15T07:10:08;5.90;99.90
23507;DHT22;11930;53.076;18.250;2022-11-15T07:12:54;5.90;99.90
23507;DHT22;11930;53.076;18.250;2022-11-15T07:15:39;5.90;99.90
23507;DHT22;11930;53.076;18.250;2022-11-15T07:18:24;5.90;99.90
23507;DHT22;11930;53.076;18.250;2022-11-15T07:21:10;5.90;99.90
23507;DHT22;11930;53.076;18.250;2022-11-15T07:23:55;5.90;99.90
23507;DHT22;11930;53.076;18.250;2022-11-15T07:26:40;5.90;99.90
23507;DHT22;11930;53.076;18.250;2022-11-15T07:29:24;5.90;99.90
23507;DHT22;11930;53.076;18.250;2022-11-15T07:32:09;5.80;99.90
23507;DHT22;11930;53.076;18.250;2022-11-15T07:34:53;5.80;99.90
23507;DHT22;11930;53.076;18.250;2022-11-15T07:37:38;5.80;99.90
23507;DHT22;11930;53.076;18.250;2022-11-15T07:40:24;5.80;99.90
23507;DHT22;11930;53.076;18.250;2022-11-15T07:43:08;5.90;99.90
23507;DHT22;11930;53.076;18.250;2022-11-15T07:45:53;5.90;99.90
23507;DHT22;11930;53.076;18.250;2022-11-15T07:48:39;6.00;99.90
23507;DHT22;11930;53.076;18.250;2022-11-15T07:51:24;6.00;99.90
23507;DHT22;11930;53.076;18.250;2022-11-15T07:54:08;6.00;99.90
23507;DHT22;11930;53.076;18.250;2022-11-15T07:56:53;6.00;99.90
23507;DHT22;11930;53.076;18.250;2022-11-15T07:59:37;6.10;99.90
23507;DHT22;11930;53.076;18.250;2022-11-15T08:02:22;6.10;99.90
23507;DHT22;11930;53.076;18.250;2022-11-15T08:05:06;6.00;99.90
23507;DHT22;11930;53.076;18.250;2022-11-15T08:07:51;6.10;99.90
23507;DHT22;11930;53.076;18.250;2022-11-15T08:10:36;6.10;99.90
23507;DHT22;11930;53.076;18.250;2022-11-15T08:13:21;6.10;99.90
23507;DHT22;11930;53.076;18.250;2022-11-15T08:16:05;6.20;99.90
23507;DHT22;11930;53.076;18.250;2022-11-15T08:18:50;6.30;99.90
23507;DHT22;11930;53.076;18.250;2022-11-15T08:21:34;6.30;99.90
23507;DHT22;11930;53.076;18.250;2022-11-15T08:24:19;6.30;99.90
23507;DHT22;11930;53.076;18.250;2022-11-15T08:27:05;6.30;99.90
23507;DHT22;11930;53.076;18.250;2022-11-15T08:29:58;6.30;99.90
23507;DHT22;11930;53.076;18.250;2022-11-15T08:32:43;6.30;99.90
23507;DHT22;11930;53.076;18.250;2022-11-15T08:35:28;6.40;99.90
23507;DHT22;11930;53.076;18.250;2022-11-15T08:38:12;6.30;99.90
23507;DHT22;11930;53.076;18.250;2022-11-15T08:41:03;6.30;99.90
23507;DHT22;11930;53.076;18.250;2022-11-15T08:43:48;6.40;99.90
23507;DHT22;11930;53.076;18.250;2022-11-15T08:46:33;6.40;99.90
23507;DHT22;11930;53.076;18.250;2022-11-15T08:49:17;6.40;99.90
23507;DHT22;11930;53.076;18.250;2022-11-15T08:52:03;6.40;99.90
23507;DHT22;11930;53.076;18.250;2022-11-15T08:54:47;6.50;99.90
23507;DHT22;11930;53.076;18.250;2022-11-15T08:57:32;6.50;99.90
23507;DHT22;11930;53.076;18.250;2022-11-15T09:00:17;6.40;99.90
23507;DHT22;11930;53.076;18.250;2022-11-15T09:03:07;6.40;99.90
23507;DHT22;11930;53.076;18.250;2022-11-15T09:05:57;6.40;99.90
23507;DHT22;11930;53.076;18.250;2022-11-15T09:08:41;6.50;99.90
23507;DHT22;11930;53.076;18.250;2022-11-15T09:11:26;6.50;99.90
23507;DHT22;11930;53.076;18.250;2022-11-15T09:14:14;6.50;99.90
23507;DHT22;11930;53.076;18.250;2022-11-15T09:16:59;6.50;99.90
23507;DHT22;11930;53.076;18.250;2022-11-15T09:19:44;6.50;99.90
23507;DHT22;11930;53.076;18.250;2022-11-15T09:22:28;6.60;99.90
23507;DHT22;11930;53.076;18.250;2022-11-15T09:25:12;6.60;99.90
23507;DHT22;11930;53.076;18.250;2022-11-15T09:27:58;6.60;99.90
23507;DHT22;11930;53.076;18.250;2022-11-15T09:30:42;6.60;99.90
23507;DHT22;11930;53.076;18.250;2022-11-15T09:33:28;6.60;99.90
23507;DHT22;11930;53.076;18.250;2022-11-15T09:36:12;6.60;99.90
23507;DHT22;11930;53.076;18.250;2022-11-15T09:38:58;6.70;99.90
23507;DHT22;11930;53.076;18.250;2022-11-15T09:41:51;6.70;99.90
23507;DHT22;11930;53.076;18.250;2022-11-15T09:50:50;6.70;99.90
23507;DHT22;11930;53.076;18.250;2022-11-15T09:53:42;6.70;99.90
23507;DHT22;11930;53.076;18.250;2022-11-15T09:56:20;6.70;99.90
23507;DHT22;11930;53.076;18.250;2022-11-15T10:01:48;6.80;99.90
23507;DHT22;11930;53.076;18.250;2022-11-15T10:04:16;6.80;99.90
23507;DHT22;11930;53.076;18.250;2022-11-15T10:06:49;6.80;99.90
23507;DHT22;11930;53.076;18.250;2022-11-15T10:09:35;6.80;99.90
23507;DHT22;11930;53.076;18.250;2022-11-15T10:12:03;6.70;99.90
23507;DHT22;11930;53.076;18.250;2022-11-15T10:14:30;6.70;99.90
23507;DHT22;11930;53.076;18.250;2022-11-15T10:24:41;6.90;99.90
23507;DHT22;11930;53.076;18.250;2022-11-15T10:27:13;7.00;99.90
23507;DHT22;11930;53.076;18.250;2022-11-15T10:29:46;7.00;99.90
23507;DHT22;11930;53.076;18.250;2022-11-15T10:32:14;7.00;99.90
23507;DHT22;11930;53.076;18.250;2022-11-15T10:34:41;7.00;99.90
23507;DHT22;11930;53.076;18.250;2022-11-15T10:37:07;7.10;99.90
23507;DHT22;11930;53.076;18.250;2022-11-15T10:39:33;7.10;99.90
23507;DHT22;11930;53.076;18.250;2022-11-15T10:42:16;7.00;99.90
23507;DHT22;11930;53.076;18.250;2022-11-15T10:44:45;7.00;99.90
23507;DHT22;11930;53.076;18.250;2022-11-15T10:47:29;7.00;99.90
23507;DHT22;11930;53.076;18.250;2022-11-15T10:50:03;7.00;99.90
23507;DHT22;11930;53.076;18.250;2022-11-15T10:52:30;7.00;99.90
23507;DHT22;11930;53.076;18.250;2022-11-15T10:55:01;7.00;99.90
23507;DHT22;11930;53.076;18.250;2022-11-15T10:57:30;7.00;99.90
23507;DHT22;11930;53.076;18.250;2022-11-15T11:02:35;7.00;99.90
23507;DHT22;11930;53.076;18.250;2022-11-15T11:05:04;7.00;99.90
23507;DHT22;11930;53.076;18.250;2022-11-15T11:07:33;7.00;99.90
23507;DHT22;11930;53.076;18.250;2022-11-15T11:10:17;7.00;99.90
23507;DHT22;11930;53.076;18.250;2022-11-15T11:12:44;7.00;99.90
23507;DHT22;11930;53.076;18.250;2022-11-15T11:15:14;7.00;99.90
23507;DHT22;11930;53.076;18.250;2022-11-15T11:18:07;7.00;99.90
23507;DHT22;11930;53.076;18.250;2022-11-15T11:20:45;7.00;99.90
23507;DHT22;11930;53.076;18.250;2022-11-15T11:26:15;6.90;99.90
23507;DHT22;11930;53.076;18.250;2022-11-15T11:31:58;7.00;99.90
23507;DHT22;11930;53.076;18.250;2022-11-15T11:47:53;7.00;99.90
23507;DHT22;11930;53.076;18.250;2022-11-15T11:50:25;6.90;99.90
23507;DHT22;11930;53.076;18.250;2022-11-15T11:55:44;6.80;99.90
23507;DHT22;11930;53.076;18.250;2022-11-15T11:58:12;6.80;99.90
23507;DHT22;11930;53.076;18.250;2022-11-15T12:00:43;6.70;99.90
23507;DHT22;11930;53.076;18.250;2022-11-15T12:06:20;6.80;99.90
23507;DHT22;11930;53.076;18.250;2022-11-15T12:08:53;6.70;99.90
23507;DHT22;11930;53.076;18.250;2022-11-15T12:13:58;6.70;99.90
23507;DHT22;11930;53.076;18.250;2022-11-15T12:16:30;6.70;99.90
23507;DHT22;11930;53.076;18.250;2022-11-15T12:19:02;6.70;99.90
23507;DHT22;11930;53.076;18.250;2022-11-15T12:26:51;6.80;99.90
23507;DHT22;11930;53.076;18.250;2022-11-15T12:29:31;6.90;99.90
23507;DHT22;11930;53.076;18.250;2022-11-15T12:31:58;6.90;99.90
23507;DHT22;11930;53.076;18.250;2022-11-15T12:34:40;6.90;99.90
23507;DHT22;11930;53.076;18.250;2022-11-15T12:37:32;6.90;99.90
23507;DHT22;11930;53.076;18.250;2022-11-15T12:40:23;6.90;99.90
23507;DHT22;11930;53.076;18.250;2022-11-15T12:45:41;6.90;99.90
23507;DHT22;11930;53.076;18.250;2022-11-15T12:53:26;6.80;99.90
23507;DHT22;11930;53.076;18.250;2022-11-15T13:12:09;6.80;99.90
23507;DHT22;11930;53.076;18.250;2022-11-15T13:17:31;6.70;99.90
23507;DHT22;11930;53.076;18.250;2022-11-15T13:27:53;6.70;99.90
23507;DHT22;11930;53.076;18.250;2022-11-15T13:30:28;6.70;99.90
23507;DHT22;11930;53.076;18.250;2022-11-15T13:32:55;6.60;99.90
23507;DHT22;11930;53.076;18.250;2022-11-15T13:35:27;6.60;99.90
23507;DHT22;11930;53.076;18.250;2022-11-15T13:37:55;6.60;99.90
23507;DHT22;11930;53.076;18.250;2022-11-15T13:42:47;6.70;99.90
23507;DHT22;11930;53.076;18.250;2022-11-15T13:45:17;6.70;99.90
23507;DHT22;11930;53.076;18.250;2022-11-15T13:47:43;6.60;99.90
23507;DHT22;11930;53.076;18.250;2022-11-15T13:50:13;6.60;99.90
23507;DHT22;11930;53.076;18.250;2022-11-15T13:52:41;6.60;99.90
23507;DHT22;11930;53.076;18.250;2022-11-15T13:55:16;6.50;99.90
23507;DHT22;11930;53.076;18.250;2022-11-15T13:57:53;6.50;99.90
23507;DHT22;11930;53.076;18.250;2022-11-15T14:03:08;6.40;99.90
23507;DHT22;11930;53.076;18.250;2022-11-15T14:05:39;6.40;99.90
23507;DHT22;11930;53.076;18.250;2022-11-15T14:10:41;6.40;99.90
23507;DHT22;11930;53.076;18.250;2022-11-15T14:13:59;6.30;99.90
23507;DHT22;11930;53.076;18.250;2022-11-15T14:16:37;6.40;99.90
23507;DHT22;11930;53.076;18.250;2022-11-15T14:19:04;6.40;99.90
23507;DHT22;11930;53.076;18.250;2022-11-15T14:21:31;6.40;99.90
23507;DHT22;11930;53.076;18.250;2022-11-15T14:24:19;6.40;99.90
23507;DHT22;11930;53.076;18.250;2022-11-15T14:26:46;6.30;99.90
23507;DHT22;11930;53.076;18.250;2022-11-15T14:29:30;6.30;99.90
23507;DHT22;11930;53.076;18.250;2022-11-15T14:32:14;6.30;99.90
23507;DHT22;11930;53.076;18.250;2022-11-15T14:34:41;6.20;99.90
23507;DHT22;11930;53.076;18.250;2022-11-15T14:37:27;6.20;99.90
23507;DHT22;11930;53.076;18.250;2022-11-15T14:39:55;6.20;99.90
23507;DHT22;11930;53.076;18.250;2022-11-15T14:42:22;6.10;99.90
23507;DHT22;11930;53.076;18.250;2022-11-15T14:44:49;6.10;99.90
23507;DHT22;11930;53.076;18.250;2022-11-15T14:47:15;6.10;99.90
23507;DHT22;11930;53.076;18.250;2022-11-15T14:49:41;6.10;99.90
23507;DHT22;11930;53.076;18.250;2022-11-15T14:52:28;6.10;99.90
23507;DHT22;11930;53.076;18.250;2022-11-15T14:54:55;6.10;99.90
23507;DHT22;11930;53.076;18.250;2022-11-15T14:57:22;6.10;99.90
23507;DHT22;11930;53.076;18.250;2022-11-15T14:59:49;6.10;99.90
23507;DHT22;11930;53.076;18.250;2022-11-15T15:02:20;6.10;99.90
23507;DHT22;11930;53.076;18.250;2022-11-15T15:04:48;6.10;99.90
23507;DHT22;11930;53.076;18.250;2022-11-15T15:07:14;6.10;99.90
23507;DHT22;11930;53.076;18.250;2022-11-15T15:09:40;6.00;99.90
23507;DHT22;11930;53.076;18.250;2022-11-15T15:12:23;6.10;99.90
23507;DHT22;11930;53.076;18.250;2022-11-15T15:14:50;6.10;99.90
23507;DHT22;11930;53.076;18.250;2022-11-15T15:17:17;6.20;99.90
23507;DHT22;11930;53.076;18.250;2022-11-15T15:19:43;6.20;99.90
23507;DHT22;11930;53.076;18.250;2022-11-15T15:22:15;6.20;99.90
23507;DHT22;11930;53.076;18.250;2022-11-15T15:24:43;6.10;99.90
23507;DHT22;11930;53.076;18.250;2022-11-15T15:27:09;6.10;99.90
23507;DHT22;11930;53.076;18.250;2022-11-15T15:29:36;6.20;99.90
23507;DHT22;11930;53.076;18.250;2022-11-15T15:32:02;6.20;99.90
23507;DHT22;11930;53.076;18.250;2022-11-15T15:34:28;6.20;99.90
23507;DHT22;11930;53.076;18.250;2022-11-15T15:37:29;6.30;99.90
23507;DHT22;11930;53.076;18.250;2022-11-15T15:39:56;6.30;99.90
23507;DHT22;11930;53.076;18.250;2022-11-15T15:42:23;6.20;99.90
23507;DHT22;11930;53.076;18.250;2022-11-15T15:44:50;6.20;99.90
23507;DHT22;11930;53.076;18.250;2022-11-15T15:47:20;6.10;99.90
23507;DHT22;11930;53.076;18.250;2022-11-15T15:49:47;6.20;99.90
23507;DHT22;11930;53.076;18.250;2022-11-15T15:52:13;6.10;99.90
23507;DHT22;11930;53.076;18.250;2022-11-15T15:54:40;6.10;99.90
23507;DHT22;11930;53.076;18.250;2022-11-15T15:57:06;6.20;99.90
23507;DHT22;11930;53.076;18.250;2022-11-15T15:59:33;6.20;99.90
23507;DHT22;11930;53.076;18.250;2022-11-15T16:02:00;6.20;99.90
23507;DHT22;11930;53.076;18.250;2022-11-15T16:04:26;6.10;99.90
23507;DHT22;11930;53.076;18.250;2022-11-15T16:07:01;6.10;99.90
23507;DHT22;11930;53.076;18.250;2022-11-15T16:09:28;6.10;99.90
23507;DHT22;11930;53.076;18.250;2022-11-15T16:12:12;6.10;99.90
23507;DHT22;11930;53.076;18.250;2022-11-15T16:14:40;6.20;99.90
23507;DHT22;11930;53.076;18.250;2022-11-15T16:17:05;6.20;99.90
23507;DHT22;11930;53.076;18.250;2022-11-15T16:19:32;6.20;99.90
23507;DHT22;11930;53.076;18.250;2022-11-15T16:21:58;6.20;99.90
23507;DHT22;11930;53.076;18.250;2022-11-15T16:24:24;6.20;99.90
23507;DHT22;11930;53.076;18.250;2022-11-15T16:26:50;6.20;99.90
23507;DHT22;11930;53.076;18.250;2022-11-15T16:29:17;6.10;99.90
23507;DHT22;11930;53.076;18.250;2022-11-15T16:31:42;6.10;99.90
23507;DHT22;11930;53.076;18.250;2022-11-15T16:34:09;6.10;99.90
23507;DHT22;11930;53.076;18.250;2022-11-15T16:36:35;6.20;99.90
23507;DHT22;11930;53.076;18.250;2022-11-15T16:39:02;6.20;99.90
23507;DHT22;11930;53.076;18.250;2022-11-15T16:41:30;6.20;99.90
23507;DHT22;11930;53.076;18.250;2022-11-15T16:43:56;6.20;99.90
23507;DHT22;11930;53.076;18.250;2022-11-15T16:46:25;6.10;99.90
23507;DHT22;11930;53.076;18.250;2022-11-15T16:48:52;6.20;99.90
23507;DHT22;11930;53.076;18.250;2022-11-15T16:51:21;6.20;99.90
23507;DHT22;11930;53.076;18.250;2022-11-15T16:53:48;6.20;99.90
23507;DHT22;11930;53.076;18.250;2022-11-15T16:58:49;6.30;99.90
23507;DHT22;11930;53.076;18.250;2022-11-15T17:01:22;6.30;99.90
23507;DHT22;11930;53.076;18.250;2022-11-15T17:03:49;6.20;99.90
23507;DHT22;11930;53.076;18.250;2022-11-15T17:06:15;6.20;99.90
23507;DHT22;11930;53.076;18.250;2022-11-15T17:08:44;6.10;99.90
23507;DHT22;11930;53.076;18.250;2022-11-15T17:11:14;6.10;99.90
23507;DHT22;11930;53.076;18.250;2022-11-15T17:13:41;6.10;99.90
23507;DHT22;11930;53.076;18.250;2022-11-15T17:16:13;6.10;99.90
23507;DHT22;11930;53.076;18.250;2022-11-15T17:18:40;6.10;99.90
23507;DHT22;11930;53.076;18.250;2022-11-15T17:21:12;6.10;99.90
23507;DHT22;11930;53.076;18.250;2022-11-15T17:23:38;6.10;99.90
23507;DHT22;11930;53.076;18.250;2022-11-15T17:26:05;6.10;99.90
23507;DHT22;11930;53.076;18.250;2022-11-15T17:28:32;6.10;99.90
23507;DHT22;11930;53.076;18.250;2022-11-15T17:30:59;6.20;99.90
23507;DHT22;11930;53.076;18.250;2022-11-15T17:33:25;6.20;99.90
23507;DHT22;11930;53.076;18.250;2022-11-15T17:35:59;6.10;99.90
23507;DHT22;11930;53.076;18.250;2022-11-15T17:38:27;6.20;99.90
23507;DHT22;11930;53.076;18.250;2022-11-15T17:41:25;6.20;99.90
23507;DHT22;11930;53.076;18.250;2022-11-15T17:43:57;6.30;99.90
23507;DHT22;11930;53.076;18.250;2022-11-15T17:46:25;6.20;99.90
23507;DHT22;11930;53.076;18.250;2022-11-15T17:48:51;6.20;99.90
23507;DHT22;11930;53.076;18.250;2022-11-15T17:51:18;6.20;99.90
23507;DHT22;11930;53.076;18.250;2022-11-15T17:53:45;6.20;99.90
23507;DHT22;11930;53.076;18.250;2022-11-15T17:56:14;6.20;99.90
23507;DHT22;11930;53.076;18.250;2022-11-15T17:58:40;6.20;99.90
23507;DHT22;11930;53.076;18.250;2022-11-15T18:03:45;6.20;99.90
23507;DHT22;11930;53.076;18.250;2022-11-15T18:06:11;6.30;99.90
23507;DHT22;11930;53.076;18.250;2022-11-15T18:08:39;6.30;99.90
23507;DHT22;11930;53.076;18.250;2022-11-15T18:11:12;6.30;99.90
23507;DHT22;11930;53.076;18.250;2022-11-15T18:13:40;6.30;99.90
23507;DHT22;11930;53.076;18.250;2022-11-15T18:16:10;6.30;99.90
23507;DHT22;11930;53.076;18.250;2022-11-15T18:18:36;6.30;99.90
23507;DHT22;11930;53.076;18.250;2022-11-15T18:21:11;6.30;99.90
23507;DHT22;11930;53.076;18.250;2022-11-15T18:23:38;6.20;99.90
23507;DHT22;11930;53.076;18.250;2022-11-15T18:26:06;6.20;99.90
23507;DHT22;11930;53.076;18.250;2022-11-15T18:28:36;6.20;99.90
23507;DHT22;11930;53.076;18.250;2022-11-15T18:31:05;6.20;99.90
23507;DHT22;11930;53.076;18.250;2022-11-15T18:33:37;6.20;99.90
23507;DHT22;11930;53.076;18.250;2022-11-15T18:36:05;6.30;99.90
23507;DHT22;11930;53.076;18.250;2022-11-15T18:38:32;6.30;99.90
23507;DHT22;11930;53.076;18.250;2022-11-15T18:41:14;6.30;99.90
23507;DHT22;11930;53.076;18.250;2022-11-15T18:43:46;6.30;99.90
23507;DHT22;11930;53.076;18.250;2022-11-15T18:46:18;6.30;99.90
23507;DHT22;11930;53.076;18.250;2022-11-15T18:48:44;6.30;99.90
23507;DHT22;11930;53.076;18.250;2022-11-15T18:51:16;6.30;99.90
23507;DHT22;11930;53.076;18.250;2022-11-15T18:53:43;6.30;99.90
23507;DHT22;11930;53.076;18.250;2022-11-15T18:56:11;6.30;99.90
23507;DHT22;11930;53.076;18.250;2022-11-15T18:58:46;6.30;99.90